createdAt,value
2023-05-02T00:01:19.669Z,4.30
2023-05-02T00:03:46.698Z,4.25
2023-05-02T00:06:13.613Z,4.50
2023-05-02T00:08:40.672Z,4.50
2023-05-02T00:11:07.699Z,4.20
2023-05-02T00:13:34.621Z,4.40
2023-05-02T00:16:01.594Z,5.10
2023-05-02T00:18:28.445Z,5.97
2023-05-02T00:20:56.458Z,5.65
2023-05-02T00:23:23.947Z,5.70
2023-05-02T00:25:51.055Z,5.78
2023-05-02T00:28:18.552Z,5.93
2023-05-02T00:30:46.255Z,6.57
2023-05-02T00:33:14.805Z,5.93
2023-05-02T00:35:42.079Z,6.60
2023-05-02T00:38:08.971Z,6.80
2023-05-02T00:40:54.177Z,6.47
2023-05-02T00:43:21.285Z,6.53
2023-05-02T00:45:48.727Z,6.75
2023-05-02T00:48:17.970Z,7.10
2023-05-02T00:50:44.794Z,7.20
2023-05-02T00:53:11.827Z,7.28
2023-05-02T00:55:38.906Z,7.97
2023-05-02T00:58:19.098Z,7.53
2023-05-02T01:01:06.911Z,7.57
2023-05-02T01:03:59.955Z,8.77
2023-05-02T01:06:42.390Z,8.80
2023-05-02T01:09:31.372Z,9.63
2023-05-02T01:12:20.741Z,9.32
2023-05-02T01:14:56.942Z,9.18
2023-05-02T01:17:28.784Z,9.88
2023-05-02T01:19:59.637Z,10.20
2023-05-02T01:22:30.173Z,10.30
2023-05-02T01:25:14.022Z,10.60
2023-05-02T01:28:06.852Z,11.05
2023-05-02T01:30:36.270Z,10.55
2023-05-02T01:33:04.826Z,10.95
2023-05-02T01:35:33.955Z,11.63
2023-05-02T01:38:02.649Z,12.73
2023-05-02T01:40:30.930Z,12.30
2023-05-02T01:42:58.899Z,14.18
2023-05-02T01:45:27.662Z,14.30
2023-05-02T01:47:57.743Z,14.88
2023-05-02T01:50:25.729Z,14.38
2023-05-02T01:52:54.735Z,15.40
2023-05-02T01:55:24.037Z,15.68
2023-05-02T01:57:53.229Z,15.70
2023-05-02T02:00:21.531Z,15.95
2023-05-02T02:02:49.855Z,16.65
2023-05-02T02:05:20.408Z,16.30
2023-05-02T02:07:47.396Z,16.45
2023-05-02T02:10:14.224Z,17.23
2023-05-02T02:12:54.156Z,16.95
2023-05-02T02:15:41.500Z,17.63
2023-05-02T02:18:29.511Z,17.73
2023-05-02T02:20:59.908Z,17.58
2023-05-02T02:23:29.116Z,18.23
2023-05-02T02:25:57.823Z,18.30
2023-05-02T02:28:24.835Z,17.67
2023-05-02T02:30:51.807Z,19.80
2023-05-02T02:33:20.346Z,19.98
2023-05-02T02:35:53.950Z,20.88
2023-05-02T02:38:37.032Z,21.48
2023-05-02T02:41:14.936Z,21.08
2023-05-02T02:44:00.382Z,22.17
2023-05-02T02:47:00.893Z,22.70
2023-05-02T02:49:44.404Z,23.15
2023-05-02T02:52:22.885Z,23.60
2023-05-02T02:55:06.404Z,23.40
2023-05-02T02:58:17.700Z,23.38
2023-05-02T03:00:46.382Z,23.02
2023-05-02T03:03:15.656Z,24.92
2023-05-02T03:05:44.496Z,25.15
2023-05-02T03:08:11.548Z,25.33
2023-05-02T03:10:38.355Z,25.80
2023-05-02T03:13:05.279Z,26.33
2023-05-02T03:15:50.577Z,26.58
2023-05-02T03:18:18.379Z,27.17
2023-05-02T03:20:45.776Z,25.77
2023-05-02T03:23:12.576Z,25.50
2023-05-02T03:25:39.543Z,27.25
2023-05-02T03:28:06.426Z,26.77
2023-05-02T03:30:33.381Z,27.35
2023-05-02T03:33:01.728Z,27.33
2023-05-02T03:35:29.591Z,28.42
2023-05-02T03:37:56.434Z,27.58
2023-05-02T03:40:23.325Z,28.23
2023-05-02T03:42:50.280Z,27.30
2023-05-02T03:45:17.618Z,27.42
2023-05-02T03:47:44.697Z,28.63
2023-05-02T03:50:11.742Z,28.77
2023-05-02T03:52:38.662Z,28.17
2023-05-02T03:55:09.399Z,27.65
2023-05-02T03:57:36.188Z,28.50
2023-05-02T04:00:03.799Z,27.60
2023-05-02T04:02:30.741Z,27.80
2023-05-02T04:04:57.614Z,26.23
2023-05-02T04:07:28.899Z,27.67
2023-05-02T04:09:56.153Z,27.20
2023-05-02T04:12:23.074Z,26.60
2023-05-02T04:14:49.946Z,25.70
2023-05-02T04:17:16.880Z,26.23
2023-05-02T04:19:44.039Z,25.77
2023-05-02T04:22:13.598Z,26.63
2023-05-02T04:24:40.725Z,26.02
2023-05-02T04:27:08.068Z,26.52
2023-05-02T04:29:34.932Z,27.25
2023-05-02T04:32:02.951Z,28.15
2023-05-02T04:34:30.296Z,28.67
2023-05-02T04:36:57.363Z,29.17
2023-05-02T04:39:24.285Z,29.40
2023-05-02T04:41:51.312Z,27.55
2023-05-02T04:44:18.306Z,28.70
2023-05-02T04:46:45.276Z,29.20
2023-05-02T04:49:12.559Z,30.30
2023-05-02T04:51:39.403Z,31.17
2023-05-02T04:54:28.391Z,30.83
2023-05-02T04:56:56.288Z,35.90
2023-05-02T04:59:27.143Z,32.33
2023-05-02T05:01:54.282Z,32.03
2023-05-02T05:04:21.186Z,32.53
2023-05-02T05:43:50.539Z,29.13
2023-05-02T05:46:17.497Z,28.80
2023-05-02T05:48:44.371Z,28.75
2023-05-02T05:51:11.140Z,28.08
2023-05-02T05:53:39.385Z,27.73
2023-05-02T05:56:13.688Z,28.35
2023-05-02T05:58:41.002Z,28.65
2023-05-02T06:01:19.529Z,29.83
2023-05-02T06:03:48.220Z,26.73
2023-05-02T06:06:17.252Z,26.38
2023-05-02T06:08:44.028Z,26.73
2023-05-02T06:11:11.785Z,26.45
2023-05-02T06:13:38.999Z,26.00
2023-05-02T06:16:11.978Z,27.48
2023-05-02T06:18:38.979Z,27.35
2023-05-02T06:21:06.281Z,26.35
2023-05-02T06:23:33.292Z,27.08
2023-05-02T06:26:01.537Z,26.98
2023-05-02T06:28:28.860Z,27.08
2023-05-02T06:31:03.391Z,27.23
2023-05-02T06:33:31.648Z,26.65
2023-05-02T06:36:03.116Z,27.05
2023-05-02T06:38:32.972Z,26.50
2023-05-02T06:41:04.114Z,28.00
2023-05-02T06:43:31.085Z,26.30
2023-05-02T06:45:58.672Z,26.25
2023-05-02T06:48:25.374Z,25.92
2023-05-02T06:50:55.456Z,25.98
2023-05-02T06:53:24.078Z,25.13
2023-05-02T06:55:51.024Z,24.80
2023-05-02T06:58:18.835Z,23.25
2023-05-02T07:00:55.261Z,20.52
2023-05-02T07:03:22.183Z,19.40
2023-05-02T07:05:49.051Z,18.48
2023-05-02T07:08:20.722Z,16.05
2023-05-02T07:10:47.563Z,12.38
2023-05-02T07:13:14.300Z,12.70
2023-05-02T07:15:41.337Z,12.25
2023-05-02T07:18:10.765Z,12.07
2023-05-02T07:20:39.649Z,12.73
2023-05-02T07:23:09.434Z,13.10
2023-05-02T07:25:36.682Z,12.98
2023-05-02T07:28:03.835Z,14.13
2023-05-02T07:30:30.592Z,13.82
2023-05-02T07:32:58.057Z,15.00
2023-05-02T07:35:27.236Z,14.55
2023-05-02T07:37:53.986Z,14.45
2023-05-02T07:40:20.937Z,13.25
2023-05-02T07:42:48.372Z,13.35
2023-05-02T07:45:15.138Z,13.85
2023-05-02T07:47:46.142Z,13.27
2023-05-02T07:50:13.992Z,14.02
2023-05-02T07:52:40.663Z,13.40
2023-05-02T07:55:08.449Z,12.23
2023-05-02T07:57:35.437Z,12.80
2023-05-02T08:00:03.370Z,13.07
2023-05-02T08:02:33.547Z,12.88
2023-05-02T08:05:00.481Z,12.60
2023-05-02T08:07:27.456Z,12.15
2023-05-02T08:09:54.370Z,11.65
2023-05-02T08:12:21.577Z,12.55
2023-05-02T08:14:54.836Z,12.63
2023-05-02T08:17:21.887Z,12.57
2023-05-02T08:19:48.673Z,12.80
2023-05-02T08:22:15.419Z,12.90
2023-05-02T08:24:42.470Z,12.45
2023-05-02T08:27:09.237Z,12.88
2023-05-02T08:29:41.134Z,10.52
2023-05-02T08:32:08.148Z,9.68
2023-05-02T08:34:35.127Z,9.20
2023-05-02T08:37:02.172Z,8.85
2023-05-02T08:39:33.427Z,7.43
2023-05-02T08:42:00.675Z,7.43
2023-05-02T08:44:27.993Z,7.10
2023-05-02T08:46:56.125Z,7.47
2023-05-02T08:49:24.291Z,7.38
2023-05-02T08:51:52.646Z,7.55
2023-05-02T08:54:21.253Z,7.65
2023-05-02T08:56:48.446Z,7.50
2023-05-02T08:59:15.350Z,9.10
2023-05-02T09:01:47.645Z,9.20
2023-05-02T09:04:14.993Z,9.77
2023-05-02T09:06:41.834Z,9.13
2023-05-02T09:09:08.678Z,9.13
2023-05-02T09:11:39.138Z,8.88
2023-05-02T09:14:15.748Z,9.05
2023-05-02T09:16:42.849Z,9.18
2023-05-02T09:19:10.673Z,8.60
2023-05-02T09:21:42.095Z,7.95
2023-05-02T09:24:22.988Z,8.02
2023-05-02T09:27:03.770Z,7.90
2023-05-02T09:29:36.499Z,7.43
2023-05-02T09:32:09.756Z,8.00
2023-05-02T09:34:38.890Z,8.05
2023-05-02T09:37:06.952Z,7.80
2023-05-02T09:39:35.167Z,7.57
2023-05-02T09:42:03.571Z,8.00
2023-05-02T09:44:40.170Z,7.68
2023-05-02T09:47:09.432Z,7.82
2023-05-02T09:49:47.099Z,7.90
2023-05-02T09:52:18.700Z,7.95
2023-05-02T09:54:50.848Z,7.32
2023-05-02T09:57:17.649Z,7.00
2023-05-02T09:59:57.960Z,7.50
2023-05-02T10:02:25.680Z,8.38
2023-05-02T10:04:57.716Z,7.35
2023-05-02T10:07:26.495Z,7.53
2023-05-02T10:09:58.840Z,8.05
2023-05-02T10:12:30.683Z,8.23
2023-05-02T10:15:05.575Z,8.25
2023-05-02T10:20:11.686Z,7.80
2023-05-02T10:22:39.175Z,8.05
2023-05-02T10:25:07.103Z,8.07
2023-05-02T10:27:34.281Z,8.23
2023-05-02T10:30:06.367Z,7.85
2023-05-02T10:32:34.735Z,7.00
2023-05-02T10:35:09.533Z,7.85
2023-05-02T10:37:38.490Z,7.65
2023-05-02T10:40:06.508Z,7.50
2023-05-02T10:42:43.660Z,7.57
2023-05-02T10:45:31.382Z,7.40
2023-05-02T10:48:25.283Z,8.05
2023-05-02T10:50:54.844Z,7.93
2023-05-02T10:53:29.795Z,7.60
2023-05-02T10:56:11.656Z,8.57
2023-05-02T10:58:38.587Z,8.57
2023-05-02T11:01:29.255Z,8.13
2023-05-02T11:04:08.402Z,8.15
2023-05-02T11:06:59.690Z,7.63
2023-05-02T11:09:31.139Z,7.85
2023-05-02T11:11:58.307Z,7.78
2023-05-02T11:14:32.777Z,7.97
2023-05-02T11:16:59.903Z,7.38
2023-05-02T11:19:29.182Z,7.45
2023-05-02T11:22:21.914Z,6.80
2023-05-02T11:24:51.268Z,6.90
2023-05-02T11:27:44.552Z,7.78
2023-05-02T11:30:16.076Z,6.97
2023-05-02T11:32:46.332Z,7.38
2023-05-02T11:35:21.196Z,7.45
2023-05-02T11:38:02.056Z,6.82
2023-05-02T11:40:29.491Z,7.32
2023-05-02T11:42:57.812Z,6.82
2023-05-02T11:45:41.466Z,6.82
2023-05-02T11:48:14.034Z,7.25
2023-05-02T11:50:55.606Z,6.80
2023-05-02T11:53:29.428Z,6.75
2023-05-02T11:55:58.480Z,6.38
2023-05-02T11:58:32.635Z,6.65
2023-05-02T12:01:13.684Z,6.28
2023-05-02T12:03:40.929Z,4.40
2023-05-02T12:06:16.092Z,2.83
2023-05-02T12:08:44.334Z,3.03
2023-05-02T12:11:18.509Z,2.50
2023-05-02T12:13:50.300Z,2.83
2023-05-02T12:16:22.251Z,2.95
2023-05-02T12:18:49.469Z,3.17
2023-05-02T12:21:17.220Z,2.97
2023-05-02T12:23:44.645Z,3.15
2023-05-02T12:26:22.215Z,3.20
2023-05-02T12:28:50.927Z,2.97
2023-05-02T12:31:18.026Z,3.15
2023-05-02T12:33:48.142Z,3.25
2023-05-02T12:36:15.017Z,3.17
2023-05-02T12:38:49.366Z,3.28
2023-05-02T12:41:16.227Z,2.85
2023-05-02T12:43:51.358Z,2.70
2023-05-02T12:46:18.334Z,2.75
2023-05-02T12:48:46.703Z,2.65
2023-05-02T12:51:23.723Z,2.28
2023-05-02T12:53:50.714Z,2.28
2023-05-02T12:56:18.513Z,2.13
2023-05-02T12:58:50.947Z,1.92
2023-05-02T13:01:17.886Z,1.90
2023-05-02T13:03:44.757Z,2.10
2023-05-02T13:06:12.146Z,2.38
2023-05-02T13:08:42.700Z,2.08
2023-05-02T13:11:09.387Z,2.50
2023-05-02T13:13:36.311Z,2.30
2023-05-02T13:16:03.869Z,3.35
2023-05-02T13:18:31.085Z,2.47
2023-05-02T13:21:00.356Z,2.53
2023-05-02T13:23:28.363Z,2.50
2023-05-02T13:25:55.608Z,3.00
2023-05-02T13:28:22.723Z,3.53
2023-05-02T13:30:49.490Z,4.28
2023-05-02T13:33:30.756Z,4.10
2023-05-02T13:35:59.356Z,3.97
2023-05-02T13:38:27.518Z,4.05
2023-05-02T13:40:54.536Z,3.67
2023-05-02T13:43:21.671Z,3.60
2023-05-02T13:45:49.021Z,3.78
2023-05-02T13:48:16.027Z,3.75
2023-05-02T13:50:48.248Z,4.50
2023-05-02T13:53:15.280Z,3.70
2023-05-02T13:55:42.286Z,3.88
2023-05-02T13:58:09.063Z,4.13
2023-05-02T14:00:38.288Z,4.10
2023-05-02T14:03:07.338Z,3.83
2023-05-02T14:34:22.055Z,3.88
2023-05-02T14:36:48.890Z,3.80
2023-05-02T14:39:16.846Z,3.42
2023-05-02T14:41:43.697Z,3.47
2023-05-02T14:44:10.583Z,3.40
2023-05-02T14:46:38.852Z,3.90
2023-05-02T14:49:05.660Z,3.80
2023-05-02T14:51:32.511Z,3.40
2023-05-02T14:53:59.862Z,3.70
2023-05-02T14:56:26.801Z,4.10
2023-05-02T14:58:53.662Z,3.80
2023-05-02T15:01:21.875Z,3.88
2023-05-02T15:04:05.292Z,3.72
2023-05-02T15:06:33.972Z,3.38
2023-05-02T15:09:01.728Z,3.53
2023-05-02T15:11:28.732Z,3.30
2023-05-02T15:13:57.509Z,2.95
2023-05-02T15:16:27.112Z,2.78
2023-05-02T15:18:54.433Z,2.90
2023-05-02T15:21:21.587Z,2.97
2023-05-02T15:23:48.475Z,2.75
2023-05-02T15:26:15.288Z,2.50
2023-05-02T15:28:42.287Z,2.50
2023-05-02T15:31:09.350Z,2.50
2023-05-02T15:33:37.506Z,2.70
2023-05-02T15:36:04.450Z,2.13
2023-05-02T15:38:31.359Z,2.20
2023-05-02T15:40:59.659Z,2.20
2023-05-02T15:43:27.426Z,2.20
2023-05-02T15:45:56.247Z,2.30
2023-05-02T15:48:24.186Z,1.92
2023-05-02T15:50:52.437Z,1.95
2023-05-02T15:53:22.102Z,1.80
2023-05-02T15:55:50.956Z,2.10
2023-05-02T15:58:18.522Z,2.25
2023-05-02T16:00:46.793Z,1.98
2023-05-02T16:03:14.131Z,11.27
2023-05-02T16:34:32.916Z,3.80
2023-05-02T16:37:01.830Z,3.20
2023-05-02T16:39:30.547Z,3.30
2023-05-02T16:41:57.267Z,3.50
2023-05-02T16:44:23.996Z,3.40
2023-05-02T16:46:51.776Z,3.53
2023-05-02T16:49:18.676Z,3.33
2023-05-02T16:51:48.889Z,3.50
2023-05-02T16:54:15.800Z,4.07
2023-05-02T16:56:42.693Z,6.57
2023-05-02T16:59:09.906Z,3.83
2023-05-02T17:01:36.795Z,3.38
2023-05-02T17:04:04.249Z,3.70
2023-05-02T17:06:31.791Z,3.55
2023-05-02T17:08:58.558Z,3.38
2023-05-02T17:11:25.725Z,3.47
2023-05-02T17:13:52.733Z,3.30
2023-05-02T17:16:22.797Z,3.30
2023-05-02T17:18:49.517Z,3.40
2023-05-02T17:21:16.428Z,4.90
2023-05-02T17:23:43.200Z,3.60
2023-05-02T17:26:16.670Z,3.50
2023-05-02T17:28:45.077Z,3.28
2023-05-02T17:31:12.027Z,3.40
2023-05-02T17:33:38.930Z,3.30
2023-05-02T17:36:05.800Z,3.50
2023-05-02T17:38:32.699Z,3.50
2023-05-02T17:40:59.618Z,3.15
2023-05-02T17:43:26.448Z,3.50
2023-05-02T17:45:53.184Z,3.50
2023-05-02T17:48:20.190Z,3.50
2023-05-02T17:50:48.298Z,3.88
2023-05-02T17:53:15.461Z,4.57
2023-05-02T17:55:42.430Z,4.13
2023-05-02T17:58:09.479Z,4.38
2023-05-02T18:00:36.366Z,4.30
2023-05-02T18:03:03.719Z,4.40
2023-05-02T18:05:30.809Z,3.95
2023-05-02T18:07:58.816Z,3.83
2023-05-02T18:10:25.679Z,3.70
2023-05-02T18:12:52.590Z,3.85
2023-05-02T18:15:19.480Z,3.80
2023-05-02T18:17:46.311Z,4.15
2023-05-02T18:20:14.332Z,3.97
2023-05-02T18:22:41.377Z,4.22
2023-05-02T18:25:08.456Z,4.43
2023-05-02T18:27:37.179Z,4.43
2023-05-02T18:30:04.425Z,4.05
2023-05-02T18:32:34.098Z,4.47
2023-05-02T18:35:02.047Z,4.60
2023-05-02T18:37:31.586Z,4.43
2023-05-02T18:39:59.022Z,4.40
2023-05-02T18:42:25.817Z,4.20
2023-05-02T18:44:52.717Z,3.65
2023-05-02T18:47:20.154Z,3.63
2023-05-02T18:49:47.297Z,3.50
2023-05-02T18:52:14.379Z,3.67
2023-05-02T18:54:41.294Z,3.10
2023-05-02T18:57:08.512Z,5.00
2023-05-02T18:59:35.577Z,5.72
2023-05-02T19:02:02.690Z,4.05
2023-05-02T19:04:32.480Z,4.88
2023-05-02T19:06:59.449Z,4.63
2023-05-02T19:09:26.554Z,7.20
2023-05-02T19:11:54.958Z,3.38
2023-05-02T19:14:21.866Z,3.38
2023-05-02T19:16:49.761Z,3.95
2023-05-02T19:19:18.060Z,4.18
2023-05-02T19:21:46.003Z,3.40
2023-05-02T19:24:13.405Z,3.40
2023-05-02T19:26:40.120Z,3.22
2023-05-02T19:29:06.751Z,3.10
2023-05-02T19:31:34.644Z,3.30
2023-05-02T19:34:01.542Z,3.35
2023-05-02T19:36:28.329Z,3.60
2023-05-02T19:38:57.869Z,3.20
2023-05-02T19:41:24.622Z,3.35
2023-05-02T19:43:51.940Z,3.08
2023-05-02T19:46:19.659Z,3.22
2023-05-02T19:48:46.487Z,3.30
2023-05-02T19:51:13.565Z,3.45
2023-05-02T19:53:40.318Z,4.35
2023-05-02T19:56:07.342Z,3.30
2023-05-02T19:58:34.504Z,5.85
2023-05-02T20:01:01.282Z,5.18
2023-05-02T20:03:28.324Z,5.55
2023-05-02T20:05:57.375Z,3.20
2023-05-02T20:08:27.465Z,3.60
2023-05-02T20:10:55.201Z,3.58
2023-05-02T20:13:21.932Z,3.70
2023-05-02T20:15:53.213Z,3.60
2023-05-02T20:18:20.420Z,3.20
2023-05-02T20:20:47.273Z,3.50
2023-05-02T20:23:14.135Z,3.40
2023-05-02T20:25:42.695Z,3.50
2023-05-02T20:28:09.916Z,3.28
2023-05-02T20:30:39.096Z,2.78
2023-05-02T20:33:14.994Z,2.95
2023-05-02T20:35:43.714Z,2.88
2023-05-02T20:38:11.169Z,2.92
2023-05-02T20:40:42.762Z,2.90
2023-05-02T20:43:09.640Z,2.53
2023-05-02T20:45:36.551Z,2.97
2023-05-02T20:48:03.515Z,2.83
2023-05-02T20:50:31.023Z,3.15
2023-05-02T20:52:58.554Z,3.05
2023-05-02T20:55:25.626Z,2.90
2023-05-02T20:57:52.956Z,3.17
2023-05-02T21:00:22.412Z,2.90
2023-05-02T21:02:49.700Z,2.90
2023-05-02T21:05:16.808Z,2.85
2023-05-02T21:07:44.774Z,3.10
2023-05-02T21:10:11.820Z,3.00
2023-05-02T21:12:38.781Z,3.38
2023-05-02T21:15:07.237Z,3.30
2023-05-02T21:17:34.211Z,3.03
2023-05-02T21:20:01.296Z,3.05
2023-05-02T21:22:28.329Z,2.80
2023-05-02T21:24:55.216Z,6.90
2023-05-02T21:27:23.011Z,3.38
2023-05-02T21:29:49.985Z,3.47
2023-05-02T21:32:16.858Z,3.30
2023-05-02T21:34:43.797Z,2.88
2023-05-02T21:37:10.569Z,2.60
2023-05-02T21:39:38.677Z,2.90
2023-05-02T21:42:05.555Z,3.30
2023-05-02T21:44:32.311Z,3.13
2023-05-02T21:46:59.098Z,3.20
2023-05-02T21:49:25.830Z,3.33
2023-05-02T21:51:52.820Z,3.20
2023-05-02T21:54:19.579Z,3.60
2023-05-02T21:56:46.417Z,3.38
2023-05-02T21:59:13.311Z,2.97
2023-05-02T22:01:40.359Z,3.10
2023-05-02T22:04:07.073Z,3.38
2023-05-02T22:06:33.795Z,3.50
2023-05-02T22:09:00.643Z,3.05
2023-05-02T22:11:31.474Z,3.10
2023-05-02T22:13:58.184Z,3.03
2023-05-02T22:16:24.983Z,2.70
2023-05-02T22:18:51.730Z,3.70
2023-05-02T22:21:18.859Z,3.22
2023-05-02T22:23:45.703Z,3.05
2023-05-02T22:26:12.460Z,3.45
2023-05-02T22:28:39.301Z,3.55
2023-05-02T22:31:06.179Z,3.08
2023-05-02T22:33:32.945Z,3.20
2023-05-02T22:35:59.752Z,3.03
2023-05-02T22:38:26.590Z,3.72
2023-05-02T22:40:53.680Z,3.28
2023-05-02T22:43:20.486Z,3.03
2023-05-02T22:45:49.173Z,3.53
2023-05-02T22:48:15.998Z,3.55
2023-05-02T22:50:43.412Z,3.30
2023-05-02T22:53:10.259Z,3.40
2023-05-02T22:55:39.102Z,3.33
2023-05-02T22:58:05.866Z,3.53
2023-05-02T23:00:32.681Z,3.00
2023-05-02T23:03:00.012Z,3.17
2023-05-02T23:05:27.077Z,3.20
2023-05-02T23:07:53.881Z,3.53
2023-05-02T23:10:20.705Z,3.65
2023-05-02T23:12:47.455Z,3.22
2023-05-02T23:15:14.185Z,3.38
2023-05-02T23:17:41.503Z,3.63
2023-05-02T23:20:12.550Z,3.78
2023-05-02T23:22:45.191Z,3.33
2023-05-02T23:25:13.717Z,4.05
2023-05-02T23:27:40.598Z,3.45
2023-05-02T23:30:10.560Z,3.50
2023-05-02T23:32:37.894Z,4.00
2023-05-02T23:35:05.835Z,3.60
2023-05-02T23:37:33.128Z,4.05
2023-05-02T23:40:01.040Z,3.55
2023-05-02T23:42:29.894Z,3.63
2023-05-02T23:44:57.860Z,3.42
2023-05-02T23:47:27.558Z,3.53
2023-05-02T23:49:54.726Z,3.88
2023-05-02T23:52:21.640Z,4.13
2023-05-02T23:54:48.765Z,3.53
2023-05-02T23:57:15.536Z,3.70
2023-05-02T23:59:42.309Z,3.60
